sensor_id;sensor_type;location;lat;lon;timestamp;P1;durP1;ratioP1;P2;durP2;ratioP2
15498;SDS011;7851;52.260;6.030;2022-10-16T00:02:31;5.2;;;3.4;;
15498;SDS011;7851;52.260;6.030;2022-10-16T00:02:31;5.1;;;3.1;;
15498;SDS011;7851;52.260;6.030;2022-10-16T00:02:40;3.3;;;3;;
15498;SDS011;7851;52.260;6.030;2022-10-16T00:03:41;3.4;;;3.2;;
15498;SDS011;7851;52.260;6.030;2022-10-16T00:04:40;4.6;;;2.9;;
15498;SDS011;7851;52.260;6.030;2022-10-16T00:05:41;3.3;;;3;;
15498;SDS011;7851;52.260;6.030;2022-10-16T00:06:40;3.5;;;3.2;;
15498;SDS011;7851;52.260;6.030;2022-10-16T00:07:40;3.7;;;3;;
15498;SDS011;7851;52.260;6.030;2022-10-16T00:08:40;6.5;;;3.1;;
15498;SDS011;7851;52.260;6.030;2022-10-16T00:09:40;3.8;;;3.4;;
15498;SDS011;7851;52.260;6.030;2022-10-16T00:10:40;2.8;;;2.6;;
15498;SDS011;7851;52.260;6.030;2022-10-16T00:11:40;5.1;;;3;;
15498;SDS011;7851;52.260;6.030;2022-10-16T00:12:40;4.3;;;3.2;;
15498;SDS011;7851;52.260;6.030;2022-10-16T00:13:41;3.2;;;2.7;;
15498;SDS011;7851;52.260;6.030;2022-10-16T00:14:40;3.6;;;3.2;;
15498;SDS011;7851;52.260;6.030;2022-10-16T00:15:40;4.2;;;3.1;;
15498;SDS011;7851;52.260;6.030;2022-10-16T00:16:40;4.5;;;2.9;;
15498;SDS011;7851;52.260;6.030;2022-10-16T00:17:40;4.9;;;3.2;;
15498;SDS011;7851;52.260;6.030;2022-10-16T00:18:41;5.4;;;2.9;;
15498;SDS011;7851;52.260;6.030;2022-10-16T00:19:40;2.9;;;2.7;;
15498;SDS011;7851;52.260;6.030;2022-10-16T00:20:40;3.2;;;2.8;;
15498;SDS011;7851;52.260;6.030;2022-10-16T00:21:41;3;;;2.8;;
15498;SDS011;7851;52.260;6.030;2022-10-16T00:22:40;3.7;;;3.3;;
15498;SDS011;7851;52.260;6.030;2022-10-16T00:23:40;4.2;;;3.1;;
15498;SDS011;7851;52.260;6.030;2022-10-16T00:24:40;5.7;;;3.1;;
15498;SDS011;7851;52.260;6.030;2022-10-16T00:25:40;4.6;;;3.3;;
15498;SDS011;7851;52.260;6.030;2022-10-16T00:26:41;4.6;;;3;;
15498;SDS011;7851;52.260;6.030;2022-10-16T00:27:40;4.1;;;3.1;;
15498;SDS011;7851;52.260;6.030;2022-10-16T00:28:41;4.1;;;2.9;;
15498;SDS011;7851;52.260;6.030;2022-10-16T00:29:40;3.5;;;2.8;;
15498;SDS011;7851;52.260;6.030;2022-10-16T00:30:40;4.1;;;3;;
15498;SDS011;7851;52.260;6.030;2022-10-16T00:31:40;3.5;;;3.2;;
15498;SDS011;7851;52.260;6.030;2022-10-16T00:32:40;3;;;2.8;;
15498;SDS011;7851;52.260;6.030;2022-10-16T00:33:41;3.8;;;2.9;;
15498;SDS011;7851;52.260;6.030;2022-10-16T00:34:40;5.2;;;3.1;;
15498;SDS011;7851;52.260;6.030;2022-10-16T00:35:40;5;;;3.4;;
15498;SDS011;7851;52.260;6.030;2022-10-16T00:36:40;3.7;;;3.3;;
15498;SDS011;7851;52.260;6.030;2022-10-16T00:37:40;5.7;;;3.1;;
15498;SDS011;7851;52.260;6.030;2022-10-16T00:38:40;3;;;2.8;;
15498;SDS011;7851;52.260;6.030;2022-10-16T00:39:40;3.2;;;2.9;;
15498;SDS011;7851;52.260;6.030;2022-10-16T00:40:40;3.2;;;3;;
15498;SDS011;7851;52.260;6.030;2022-10-16T00:41:40;3.7;;;3.3;;
15498;SDS011;7851;52.260;6.030;2022-10-16T00:42:40;4.1;;;3.1;;
15498;SDS011;7851;52.260;6.030;2022-10-16T00:43:42;5.4;;;3.3;;
15498;SDS011;7851;52.260;6.030;2022-10-16T00:44:43;4;;;3.2;;
15498;SDS011;7851;52.260;6.030;2022-10-16T00:45:41;4.5;;;3.3;;
15498;SDS011;7851;52.260;6.030;2022-10-16T00:46:41;8.5;;;3.2;;
15498;SDS011;7851;52.260;6.030;2022-10-16T00:47:41;5.3;;;3;;
15498;SDS011;7851;52.260;6.030;2022-10-16T00:48:41;4.6;;;3;;
15498;SDS011;7851;52.260;6.030;2022-10-16T00:49:40;3.3;;;2.8;;
15498;SDS011;7851;52.260;6.030;2022-10-16T00:50:40;4.1;;;3.4;;
15498;SDS011;7851;52.260;6.030;2022-10-16T00:51:41;5.8;;;3.4;;
15498;SDS011;7851;52.260;6.030;2022-10-16T00:52:41;3;;;2.8;;
15498;SDS011;7851;52.260;6.030;2022-10-16T00:53:40;4.6;;;3.1;;
15498;SDS011;7851;52.260;6.030;2022-10-16T00:54:40;7.1;;;3.1;;
15498;SDS011;7851;52.260;6.030;2022-10-16T00:55:40;3.6;;;3.1;;
15498;SDS011;7851;52.260;6.030;2022-10-16T00:56:40;3.4;;;3.1;;
15498;SDS011;7851;52.260;6.030;2022-10-16T00:57:41;3.4;;;3.1;;
15498;SDS011;7851;52.260;6.030;2022-10-16T00:58:40;3.5;;;3.2;;
15498;SDS011;7851;52.260;6.030;2022-10-16T00:59:41;4.2;;;3.1;;
15498;SDS011;7851;52.260;6.030;2022-10-16T01:00:40;4.3;;;3.3;;
15498;SDS011;7851;52.260;6.030;2022-10-16T01:01:40;4.1;;;3.7;;
15498;SDS011;7851;52.260;6.030;2022-10-16T01:02:40;5.6;;;3.6;;
15498;SDS011;7851;52.260;6.030;2022-10-16T01:03:40;7.8;;;3.5;;
15498;SDS011;7851;52.260;6.030;2022-10-16T01:04:42;7.6;;;3.2;;
15498;SDS011;7851;52.260;6.030;2022-10-16T01:05:42;3.9;;;3.4;;
15498;SDS011;7851;52.260;6.030;2022-10-16T01:06:43;4.1;;;3.1;;
15498;SDS011;7851;52.260;6.030;2022-10-16T01:07:43;4.4;;;4;;
15498;SDS011;7851;52.260;6.030;2022-10-16T01:08:44;6.5;;;3.5;;
15498;SDS011;7851;52.260;6.030;2022-10-16T01:09:44;4.5;;;3.3;;
15498;SDS011;7851;52.260;6.030;2022-10-16T01:10:41;4.6;;;3.7;;
15498;SDS011;7851;52.260;6.030;2022-10-16T01:11:44;5.2;;;3.9;;
15498;SDS011;7851;52.260;6.030;2022-10-16T01:12:41;3.6;;;3.3;;
15498;SDS011;7851;52.260;6.030;2022-10-16T01:13:41;3.3;;;3.1;;
15498;SDS011;7851;52.260;6.030;2022-10-16T01:14:42;3.7;;;3.4;;
15498;SDS011;7851;52.260;6.030;2022-10-16T01:15:42;3.8;;;3.4;;
15498;SDS011;7851;52.260;6.030;2022-10-16T01:16:42;3.6;;;3.3;;
15498;SDS011;7851;52.260;6.030;2022-10-16T01:17:41;3.8;;;3.4;;
15498;SDS011;7851;52.260;6.030;2022-10-16T01:18:43;3.3;;;3;;
15498;SDS011;7851;52.260;6.030;2022-10-16T01:19:44;3.8;;;3.3;;
15498;SDS011;7851;52.260;6.030;2022-10-16T01:20:42;3.4;;;3.1;;
15498;SDS011;7851;52.260;6.030;2022-10-16T01:21:42;4.3;;;3.3;;
15498;SDS011;7851;52.260;6.030;2022-10-16T01:22:43;4.3;;;3.4;;
15498;SDS011;7851;52.260;6.030;2022-10-16T01:23:44;6.4;;;3.3;;
15498;SDS011;7851;52.260;6.030;2022-10-16T01:24:41;6.4;;;3.4;;
15498;SDS011;7851;52.260;6.030;2022-10-16T01:25:47;8.7;;;3.5;;
15498;SDS011;7851;52.260;6.030;2022-10-16T01:26:44;3.6;;;2.9;;
15498;SDS011;7851;52.260;6.030;2022-10-16T01:27:40;3.2;;;2.9;;
15498;SDS011;7851;52.260;6.030;2022-10-16T01:28:41;4;;;3;;
15498;SDS011;7851;52.260;6.030;2022-10-16T01:29:42;3.7;;;3.2;;
15498;SDS011;7851;52.260;6.030;2022-10-16T01:30:41;3.6;;;3.3;;
15498;SDS011;7851;52.260;6.030;2022-10-16T01:31:41;3.4;;;3.1;;
15498;SDS011;7851;52.260;6.030;2022-10-16T01:32:41;4;;;3.2;;
15498;SDS011;7851;52.260;6.030;2022-10-16T01:33:41;3.7;;;3.4;;
15498;SDS011;7851;52.260;6.030;2022-10-16T01:34:41;4.8;;;3.2;;
15498;SDS011;7851;52.260;6.030;2022-10-16T01:35:41;3.8;;;3.4;;
15498;SDS011;7851;52.260;6.030;2022-10-16T01:36:42;4.6;;;3.4;;
15498;SDS011;7851;52.260;6.030;2022-10-16T01:37:46;3.5;;;3.2;;
15498;SDS011;7851;52.260;6.030;2022-10-16T01:38:40;3.2;;;3;;
15498;SDS011;7851;52.260;6.030;2022-10-16T01:39:41;8.7;;;3.7;;
15498;SDS011;7851;52.260;6.030;2022-10-16T01:40:42;4;;;3;;
15498;SDS011;7851;52.260;6.030;2022-10-16T01:41:41;3.3;;;3;;
15498;SDS011;7851;52.260;6.030;2022-10-16T01:42:41;6.7;;;3.3;;
15498;SDS011;7851;52.260;6.030;2022-10-16T01:43:42;4.2;;;3.4;;
15498;SDS011;7851;52.260;6.030;2022-10-16T01:44:40;3.9;;;3.6;;
15498;SDS011;7851;52.260;6.030;2022-10-16T01:45:41;3.5;;;3.3;;
15498;SDS011;7851;52.260;6.030;2022-10-16T01:46:41;3.8;;;3.4;;
15498;SDS011;7851;52.260;6.030;2022-10-16T01:47:40;4.3;;;3.4;;
15498;SDS011;7851;52.260;6.030;2022-10-16T01:48:40;6.4;;;3.8;;
15498;SDS011;7851;52.260;6.030;2022-10-16T01:49:40;4.2;;;3.6;;
15498;SDS011;7851;52.260;6.030;2022-10-16T01:50:41;4.1;;;3.8;;
15498;SDS011;7851;52.260;6.030;2022-10-16T01:51:40;4.2;;;3.8;;
15498;SDS011;7851;52.260;6.030;2022-10-16T01:52:43;4.4;;;4;;
15498;SDS011;7851;52.260;6.030;2022-10-16T01:53:40;4;;;3.7;;
15498;SDS011;7851;52.260;6.030;2022-10-16T01:54:41;4.4;;;4;;
15498;SDS011;7851;52.260;6.030;2022-10-16T01:55:43;4.2;;;3.8;;
15498;SDS011;7851;52.260;6.030;2022-10-16T01:56:40;5.7;;;3.8;;
15498;SDS011;7851;52.260;6.030;2022-10-16T01:57:42;3.8;;;3.5;;
15498;SDS011;7851;52.260;6.030;2022-10-16T01:58:41;3.8;;;3.6;;
15498;SDS011;7851;52.260;6.030;2022-10-16T01:59:42;4.3;;;4;;
15498;SDS011;7851;52.260;6.030;2022-10-16T02:00:41;4.5;;;3.7;;
15498;SDS011;7851;52.260;6.030;2022-10-16T02:01:42;3.7;;;3.5;;
15498;SDS011;7851;52.260;6.030;2022-10-16T02:02:41;4.6;;;4.2;;
15498;SDS011;7851;52.260;6.030;2022-10-16T02:03:40;4.1;;;3.6;;
15498;SDS011;7851;52.260;6.030;2022-10-16T02:04:42;4.6;;;4.3;;
15498;SDS011;7851;52.260;6.030;2022-10-16T02:05:41;4.4;;;4;;
15498;SDS011;7851;52.260;6.030;2022-10-16T02:06:40;4.7;;;4.4;;
15498;SDS011;7851;52.260;6.030;2022-10-16T02:07:40;6;;;4.6;;
15498;SDS011;7851;52.260;6.030;2022-10-16T02:08:40;4.5;;;4.2;;
15498;SDS011;7851;52.260;6.030;2022-10-16T02:09:40;5.5;;;5;;
15498;SDS011;7851;52.260;6.030;2022-10-16T02:10:40;5;;;4.6;;
15498;SDS011;7851;52.260;6.030;2022-10-16T02:11:40;5.1;;;4.6;;
15498;SDS011;7851;52.260;6.030;2022-10-16T02:12:41;4.7;;;4.3;;
15498;SDS011;7851;52.260;6.030;2022-10-16T02:13:41;4.9;;;4.5;;
15498;SDS011;7851;52.260;6.030;2022-10-16T02:14:40;5;;;4.6;;
15498;SDS011;7851;52.260;6.030;2022-10-16T02:15:40;5;;;4.6;;
15498;SDS011;7851;52.260;6.030;2022-10-16T02:16:41;5.7;;;5.2;;
15498;SDS011;7851;52.260;6.030;2022-10-16T02:17:40;6.5;;;4.4;;
15498;SDS011;7851;52.260;6.030;2022-10-16T02:18:41;7;;;5.2;;
15498;SDS011;7851;52.260;6.030;2022-10-16T02:19:40;5.9;;;5.3;;
15498;SDS011;7851;52.260;6.030;2022-10-16T02:20:43;5.3;;;4.9;;
15498;SDS011;7851;52.260;6.030;2022-10-16T02:21:42;5.3;;;4.9;;
15498;SDS011;7851;52.260;6.030;2022-10-16T02:22:42;6.7;;;5;;
15498;SDS011;7851;52.260;6.030;2022-10-16T02:23:42;4.6;;;4.3;;
15498;SDS011;7851;52.260;6.030;2022-10-16T02:24:42;4.7;;;4.4;;
15498;SDS011;7851;52.260;6.030;2022-10-16T02:25:41;5;;;4.6;;
15498;SDS011;7851;52.260;6.030;2022-10-16T02:26:41;4.6;;;4.2;;
15498;SDS011;7851;52.260;6.030;2022-10-16T02:27:43;4.7;;;4.3;;
15498;SDS011;7851;52.260;6.030;2022-10-16T02:28:41;7.1;;;4.3;;
15498;SDS011;7851;52.260;6.030;2022-10-16T02:29:41;4.8;;;4.5;;
15498;SDS011;7851;52.260;6.030;2022-10-16T02:30:41;5.9;;;4.7;;
15498;SDS011;7851;52.260;6.030;2022-10-16T02:31:41;4.9;;;4.5;;
15498;SDS011;7851;52.260;6.030;2022-10-16T02:32:41;5.3;;;4.7;;
15498;SDS011;7851;52.260;6.030;2022-10-16T02:33:40;5;;;4.6;;
15498;SDS011;7851;52.260;6.030;2022-10-16T02:34:40;4.8;;;4.5;;
15498;SDS011;7851;52.260;6.030;2022-10-16T02:35:41;5.7;;;4.3;;
15498;SDS011;7851;52.260;6.030;2022-10-16T02:36:40;5.2;;;4.8;;
15498;SDS011;7851;52.260;6.030;2022-10-16T02:37:40;5.3;;;4.8;;
15498;SDS011;7851;52.260;6.030;2022-10-16T02:38:40;4.5;;;4.2;;
15498;SDS011;7851;52.260;6.030;2022-10-16T02:39:40;7.4;;;4.6;;
15498;SDS011;7851;52.260;6.030;2022-10-16T02:40:40;4.8;;;4.4;;
15498;SDS011;7851;52.260;6.030;2022-10-16T02:41:40;4.9;;;4.6;;
15498;SDS011;7851;52.260;6.030;2022-10-16T02:42:41;4.3;;;4;;
15498;SDS011;7851;52.260;6.030;2022-10-16T02:43:40;5.1;;;4.8;;
15498;SDS011;7851;52.260;6.030;2022-10-16T02:44:40;5;;;4.6;;
15498;SDS011;7851;52.260;6.030;2022-10-16T02:45:40;5.6;;;4.3;;
15498;SDS011;7851;52.260;6.030;2022-10-16T02:46:40;6.3;;;4.4;;
15498;SDS011;7851;52.260;6.030;2022-10-16T02:47:40;8.8;;;4.6;;
15498;SDS011;7851;52.260;6.030;2022-10-16T02:48:41;4.9;;;4.5;;
15498;SDS011;7851;52.260;6.030;2022-10-16T02:49:40;4.8;;;4.4;;
15498;SDS011;7851;52.260;6.030;2022-10-16T02:50:40;4.1;;;3.8;;
15498;SDS011;7851;52.260;6.030;2022-10-16T02:51:40;5;;;4.7;;
15498;SDS011;7851;52.260;6.030;2022-10-16T02:52:40;5;;;4.6;;
15498;SDS011;7851;52.260;6.030;2022-10-16T02:53:40;5;;;4.6;;
15498;SDS011;7851;52.260;6.030;2022-10-16T02:54:40;5.1;;;4.6;;
15498;SDS011;7851;52.260;6.030;2022-10-16T02:55:40;4.3;;;4;;
15498;SDS011;7851;52.260;6.030;2022-10-16T02:56:40;4.6;;;4.3;;
15498;SDS011;7851;52.260;6.030;2022-10-16T02:57:40;4.8;;;4.3;;
15498;SDS011;7851;52.260;6.030;2022-10-16T02:58:40;6.2;;;4.3;;
15498;SDS011;7851;52.260;6.030;2022-10-16T02:59:40;5.2;;;4.8;;
15498;SDS011;7851;52.260;6.030;2022-10-16T03:00:40;4.8;;;4.4;;
15498;SDS011;7851;52.260;6.030;2022-10-16T03:01:40;5.2;;;4.7;;
15498;SDS011;7851;52.260;6.030;2022-10-16T03:02:40;5;;;4.7;;
15498;SDS011;7851;52.260;6.030;2022-10-16T03:03:40;4.5;;;4.1;;
15498;SDS011;7851;52.260;6.030;2022-10-16T03:04:40;5.5;;;4.7;;
15498;SDS011;7851;52.260;6.030;2022-10-16T03:05:41;4.6;;;4.4;;
15498;SDS011;7851;52.260;6.030;2022-10-16T03:06:40;7.6;;;5.3;;
15498;SDS011;7851;52.260;6.030;2022-10-16T03:07:40;3.9;;;3.7;;
15498;SDS011;7851;52.260;6.030;2022-10-16T03:08:40;5.5;;;4.5;;
15498;SDS011;7851;52.260;6.030;2022-10-16T03:09:40;4.5;;;4;;
15498;SDS011;7851;52.260;6.030;2022-10-16T03:10:40;4.8;;;4.4;;
15498;SDS011;7851;52.260;6.030;2022-10-16T03:11:40;4.8;;;4.4;;
15498;SDS011;7851;52.260;6.030;2022-10-16T03:12:40;4.9;;;4.4;;
15498;SDS011;7851;52.260;6.030;2022-10-16T03:13:40;4.7;;;4.3;;
15498;SDS011;7851;52.260;6.030;2022-10-16T03:14:40;4.4;;;4.1;;
15498;SDS011;7851;52.260;6.030;2022-10-16T03:15:40;5.7;;;4.3;;
15498;SDS011;7851;52.260;6.030;2022-10-16T03:16:40;4.4;;;4.1;;
15498;SDS011;7851;52.260;6.030;2022-10-16T03:17:40;6.2;;;4.2;;
15498;SDS011;7851;52.260;6.030;2022-10-16T03:18:40;5.2;;;4.8;;
15498;SDS011;7851;52.260;6.030;2022-10-16T03:19:40;4.7;;;4.3;;
15498;SDS011;7851;52.260;6.030;2022-10-16T03:20:42;4.9;;;4.4;;
15498;SDS011;7851;52.260;6.030;2022-10-16T03:21:40;4.1;;;3.9;;
15498;SDS011;7851;52.260;6.030;2022-10-16T03:22:40;4.8;;;4.5;;
15498;SDS011;7851;52.260;6.030;2022-10-16T03:23:40;4.7;;;4.4;;
15498;SDS011;7851;52.260;6.030;2022-10-16T03:24:40;5.1;;;4.7;;
15498;SDS011;7851;52.260;6.030;2022-10-16T03:25:40;5;;;4.6;;
15498;SDS011;7851;52.260;6.030;2022-10-16T03:26:40;4.6;;;4.2;;
15498;SDS011;7851;52.260;6.030;2022-10-16T03:27:40;4.7;;;4.4;;
15498;SDS011;7851;52.260;6.030;2022-10-16T03:28:40;4.4;;;4.1;;
15498;SDS011;7851;52.260;6.030;2022-10-16T03:29:40;4.3;;;4.1;;
15498;SDS011;7851;52.260;6.030;2022-10-16T03:30:40;4.3;;;3.8;;
15498;SDS011;7851;52.260;6.030;2022-10-16T03:31:41;4.8;;;4.5;;
15498;SDS011;7851;52.260;6.030;2022-10-16T03:32:40;5.5;;;4.6;;
15498;SDS011;7851;52.260;6.030;2022-10-16T03:33:40;5.5;;;5.1;;
15498;SDS011;7851;52.260;6.030;2022-10-16T03:34:40;5.4;;;4.9;;
15498;SDS011;7851;52.260;6.030;2022-10-16T03:35:40;5.4;;;5;;
15498;SDS011;7851;52.260;6.030;2022-10-16T03:36:40;5.7;;;5.2;;
15498;SDS011;7851;52.260;6.030;2022-10-16T03:37:40;4.6;;;4.3;;
15498;SDS011;7851;52.260;6.030;2022-10-16T03:38:40;5.3;;;5;;
15498;SDS011;7851;52.260;6.030;2022-10-16T03:39:40;5.2;;;4.9;;
15498;SDS011;7851;52.260;6.030;2022-10-16T03:40:40;5.7;;;5.2;;
15498;SDS011;7851;52.260;6.030;2022-10-16T03:41:40;5.2;;;5;;
15498;SDS011;7851;52.260;6.030;2022-10-16T03:42:41;5.7;;;5.1;;
15498;SDS011;7851;52.260;6.030;2022-10-16T03:43:40;5.2;;;4.8;;
15498;SDS011;7851;52.260;6.030;2022-10-16T03:44:40;5.3;;;5;;
15498;SDS011;7851;52.260;6.030;2022-10-16T03:45:40;5.2;;;4.8;;
15498;SDS011;7851;52.260;6.030;2022-10-16T03:46:40;5.2;;;4.9;;
15498;SDS011;7851;52.260;6.030;2022-10-16T03:47:41;5.4;;;5;;
15498;SDS011;7851;52.260;6.030;2022-10-16T03:48:40;5.5;;;5.2;;
15498;SDS011;7851;52.260;6.030;2022-10-16T03:49:40;5.4;;;5.1;;
15498;SDS011;7851;52.260;6.030;2022-10-16T03:50:40;5.1;;;4.8;;
15498;SDS011;7851;52.260;6.030;2022-10-16T03:51:40;5.5;;;5;;
15498;SDS011;7851;52.260;6.030;2022-10-16T03:52:40;5.4;;;5;;
15498;SDS011;7851;52.260;6.030;2022-10-16T03:53:40;4.6;;;4.3;;
15498;SDS011;7851;52.260;6.030;2022-10-16T03:54:40;5.6;;;5.1;;
15498;SDS011;7851;52.260;6.030;2022-10-16T03:55:41;5.1;;;4.8;;
15498;SDS011;7851;52.260;6.030;2022-10-16T03:56:40;5.1;;;4.8;;
15498;SDS011;7851;52.260;6.030;2022-10-16T03:57:40;5.8;;;5.1;;
15498;SDS011;7851;52.260;6.030;2022-10-16T03:58:40;4.6;;;4.3;;
15498;SDS011;7851;52.260;6.030;2022-10-16T03:59:40;6.1;;;5.5;;
15498;SDS011;7851;52.260;6.030;2022-10-16T04:00:40;5.5;;;5.1;;
15498;SDS011;7851;52.260;6.030;2022-10-16T04:01:40;5.5;;;5.2;;
15498;SDS011;7851;52.260;6.030;2022-10-16T04:02:40;5.6;;;5.2;;
15498;SDS011;7851;52.260;6.030;2022-10-16T04:03:40;6.1;;;5.7;;
15498;SDS011;7851;52.260;6.030;2022-10-16T04:04:40;5.9;;;5.5;;
15498;SDS011;7851;52.260;6.030;2022-10-16T04:05:40;5.1;;;4.8;;
15498;SDS011;7851;52.260;6.030;2022-10-16T04:06:40;5.4;;;5.1;;
15498;SDS011;7851;52.260;6.030;2022-10-16T04:07:40;5;;;4.7;;
15498;SDS011;7851;52.260;6.030;2022-10-16T04:08:41;5.3;;;4.8;;
15498;SDS011;7851;52.260;6.030;2022-10-16T04:09:40;5.1;;;4.8;;
15498;SDS011;7851;52.260;6.030;2022-10-16T04:10:41;5.9;;;5.5;;
15498;SDS011;7851;52.260;6.030;2022-10-16T04:11:40;5.8;;;4.9;;
15498;SDS011;7851;52.260;6.030;2022-10-16T04:12:40;4.8;;;4.5;;
15498;SDS011;7851;52.260;6.030;2022-10-16T04:13:41;5.3;;;4.9;;
15498;SDS011;7851;52.260;6.030;2022-10-16T04:14:40;5.4;;;5.1;;
15498;SDS011;7851;52.260;6.030;2022-10-16T04:15:40;4.8;;;4.5;;
15498;SDS011;7851;52.260;6.030;2022-10-16T04:16:40;5.7;;;5;;
15498;SDS011;7851;52.260;6.030;2022-10-16T04:17:40;4.9;;;4.6;;
15498;SDS011;7851;52.260;6.030;2022-10-16T04:18:40;4.9;;;4.7;;
15498;SDS011;7851;52.260;6.030;2022-10-16T04:19:40;4.4;;;4.2;;
15498;SDS011;7851;52.260;6.030;2022-10-16T04:20:40;5;;;4.8;;
15498;SDS011;7851;52.260;6.030;2022-10-16T04:21:40;4.9;;;4.6;;
15498;SDS011;7851;52.260;6.030;2022-10-16T04:22:40;4.8;;;4.5;;
15498;SDS011;7851;52.260;6.030;2022-10-16T04:23:41;5.5;;;5.1;;
15498;SDS011;7851;52.260;6.030;2022-10-16T04:24:40;5.8;;;5.4;;
15498;SDS011;7851;52.260;6.030;2022-10-16T04:25:40;6.4;;;5.6;;
15498;SDS011;7851;52.260;6.030;2022-10-16T04:26:40;5.2;;;4.9;;
15498;SDS011;7851;52.260;6.030;2022-10-16T04:27:40;4.3;;;4;;
15498;SDS011;7851;52.260;6.030;2022-10-16T04:28:41;4.5;;;4.3;;
15498;SDS011;7851;52.260;6.030;2022-10-16T04:29:40;4.8;;;4.5;;
15498;SDS011;7851;52.260;6.030;2022-10-16T04:30:40;4.8;;;4.5;;
15498;SDS011;7851;52.260;6.030;2022-10-16T04:31:40;4.5;;;4.2;;
15498;SDS011;7851;52.260;6.030;2022-10-16T04:32:40;6.4;;;4.9;;
15498;SDS011;7851;52.260;6.030;2022-10-16T04:33:42;4.9;;;4.6;;
15498;SDS011;7851;52.260;6.030;2022-10-16T04:34:40;4.8;;;4.6;;
15498;SDS011;7851;52.260;6.030;2022-10-16T04:35:40;4.9;;;4.6;;
15498;SDS011;7851;52.260;6.030;2022-10-16T04:36:40;4.6;;;4.3;;
15498;SDS011;7851;52.260;6.030;2022-10-16T04:37:40;3.9;;;3.6;;
15498;SDS011;7851;52.260;6.030;2022-10-16T04:38:40;4.6;;;4.3;;
15498;SDS011;7851;52.260;6.030;2022-10-16T04:39:40;4.4;;;4.1;;
15498;SDS011;7851;52.260;6.030;2022-10-16T04:40:41;4.5;;;4.3;;
15498;SDS011;7851;52.260;6.030;2022-10-16T04:41:40;5.5;;;4.1;;
15498;SDS011;7851;52.260;6.030;2022-10-16T04:42:40;4.8;;;4.5;;
15498;SDS011;7851;52.260;6.030;2022-10-16T04:43:40;4.8;;;4.5;;
15498;SDS011;7851;52.260;6.030;2022-10-16T04:44:40;4.6;;;4.3;;
15498;SDS011;7851;52.260;6.030;2022-10-16T04:45:42;4.7;;;4.3;;
15498;SDS011;7851;52.260;6.030;2022-10-16T04:46:40;4.4;;;4.1;;
15498;SDS011;7851;52.260;6.030;2022-10-16T04:47:40;5;;;4.5;;
15498;SDS011;7851;52.260;6.030;2022-10-16T04:48:40;5.3;;;4;;
15498;SDS011;7851;52.260;6.030;2022-10-16T04:49:40;4.1;;;3.9;;
15498;SDS011;7851;52.260;6.030;2022-10-16T04:50:40;4.3;;;4;;
15498;SDS011;7851;52.260;6.030;2022-10-16T04:51:40;5;;;4.6;;
15498;SDS011;7851;52.260;6.030;2022-10-16T04:52:40;4.2;;;3.9;;
15498;SDS011;7851;52.260;6.030;2022-10-16T04:53:40;5;;;4.6;;
15498;SDS011;7851;52.260;6.030;2022-10-16T04:54:40;4.3;;;4;;
15498;SDS011;7851;52.260;6.030;2022-10-16T04:55:40;5;;;4.6;;
15498;SDS011;7851;52.260;6.030;2022-10-16T04:56:40;4.5;;;4.3;;
15498;SDS011;7851;52.260;6.030;2022-10-16T04:57:40;4;;;3.7;;
15498;SDS011;7851;52.260;6.030;2022-10-16T04:58:40;4.1;;;3.8;;
15498;SDS011;7851;52.260;6.030;2022-10-16T04:59:40;4.3;;;3.9;;
15498;SDS011;7851;52.260;6.030;2022-10-16T05:00:40;4.4;;;4.1;;
15498;SDS011;7851;52.260;6.030;2022-10-16T05:01:40;4.1;;;3.5;;
15498;SDS011;7851;52.260;6.030;2022-10-16T05:02:40;3.7;;;3.4;;
15498;SDS011;7851;52.260;6.030;2022-10-16T05:03:40;3.5;;;3.2;;
15498;SDS011;7851;52.260;6.030;2022-10-16T05:04:41;3.9;;;3.7;;
15498;SDS011;7851;52.260;6.030;2022-10-16T05:05:42;5.3;;;3.6;;
15498;SDS011;7851;52.260;6.030;2022-10-16T05:06:41;3.2;;;3.1;;
15498;SDS011;7851;52.260;6.030;2022-10-16T05:07:40;3.7;;;3.4;;
15498;SDS011;7851;52.260;6.030;2022-10-16T05:08:40;3.4;;;3.1;;
15498;SDS011;7851;52.260;6.030;2022-10-16T05:09:40;3.8;;;3.6;;
15498;SDS011;7851;52.260;6.030;2022-10-16T05:10:40;4;;;3.8;;
15498;SDS011;7851;52.260;6.030;2022-10-16T05:11:40;3.4;;;3.2;;
15498;SDS011;7851;52.260;6.030;2022-10-16T05:12:40;6.4;;;3.2;;
15498;SDS011;7851;52.260;6.030;2022-10-16T05:13:40;5.2;;;3.2;;
15498;SDS011;7851;52.260;6.030;2022-10-16T05:14:40;3.8;;;3.5;;
15498;SDS011;7851;52.260;6.030;2022-10-16T05:15:40;4;;;3.7;;
15498;SDS011;7851;52.260;6.030;2022-10-16T05:16:41;4.1;;;3.8;;
15498;SDS011;7851;52.260;6.030;2022-10-16T05:17:40;4.1;;;3.5;;
15498;SDS011;7851;52.260;6.030;2022-10-16T05:18:40;4;;;3.7;;
15498;SDS011;7851;52.260;6.030;2022-10-16T05:19:40;4;;;3.8;;
15498;SDS011;7851;52.260;6.030;2022-10-16T05:20:40;4.1;;;3.8;;
15498;SDS011;7851;52.260;6.030;2022-10-16T05:21:40;4.1;;;3.8;;
15498;SDS011;7851;52.260;6.030;2022-10-16T05:22:40;4;;;3.7;;
15498;SDS011;7851;52.260;6.030;2022-10-16T05:23:40;3.8;;;3.6;;
15498;SDS011;7851;52.260;6.030;2022-10-16T05:24:41;3.9;;;3.6;;
15498;SDS011;7851;52.260;6.030;2022-10-16T05:25:41;3.9;;;3.6;;
15498;SDS011;7851;52.260;6.030;2022-10-16T05:26:41;5.4;;;3.9;;
15498;SDS011;7851;52.260;6.030;2022-10-16T05:27:41;4.3;;;4;;
15498;SDS011;7851;52.260;6.030;2022-10-16T05:28:41;4.3;;;4;;
15498;SDS011;7851;52.260;6.030;2022-10-16T05:29:41;5.2;;;4.8;;
15498;SDS011;7851;52.260;6.030;2022-10-16T05:30:41;7.6;;;4.2;;
15498;SDS011;7851;52.260;6.030;2022-10-16T05:31:41;4.5;;;4.1;;
15498;SDS011;7851;52.260;6.030;2022-10-16T05:32:41;4.4;;;4.2;;
15498;SDS011;7851;52.260;6.030;2022-10-16T05:33:42;4.7;;;4.4;;
15498;SDS011;7851;52.260;6.030;2022-10-16T05:34:41;4.4;;;4.1;;
15498;SDS011;7851;52.260;6.030;2022-10-16T05:35:41;4.7;;;4.4;;
15498;SDS011;7851;52.260;6.030;2022-10-16T05:36:41;4.8;;;4.5;;
15498;SDS011;7851;52.260;6.030;2022-10-16T05:37:41;4.1;;;3.9;;
15498;SDS011;7851;52.260;6.030;2022-10-16T05:38:41;4.6;;;4.1;;
15498;SDS011;7851;52.260;6.030;2022-10-16T05:39:41;5.8;;;4.6;;
15498;SDS011;7851;52.260;6.030;2022-10-16T05:40:41;4.7;;;4.4;;
15498;SDS011;7851;52.260;6.030;2022-10-16T05:41:41;4.5;;;4.1;;
15498;SDS011;7851;52.260;6.030;2022-10-16T05:42:42;4.2;;;4;;
15498;SDS011;7851;52.260;6.030;2022-10-16T05:43:41;4.2;;;3.9;;
15498;SDS011;7851;52.260;6.030;2022-10-16T05:44:41;4.6;;;4.3;;
15498;SDS011;7851;52.260;6.030;2022-10-16T05:45:41;4.5;;;4.2;;
15498;SDS011;7851;52.260;6.030;2022-10-16T05:46:41;4.5;;;4;;
15498;SDS011;7851;52.260;6.030;2022-10-16T05:47:41;4.7;;;4.5;;
15498;SDS011;7851;52.260;6.030;2022-10-16T05:48:42;4.4;;;4.2;;
15498;SDS011;7851;52.260;6.030;2022-10-16T05:49:41;4.5;;;4.3;;
15498;SDS011;7851;52.260;6.030;2022-10-16T05:50:41;6.4;;;5.5;;
15498;SDS011;7851;52.260;6.030;2022-10-16T05:51:41;5.1;;;4.7;;
15498;SDS011;7851;52.260;6.030;2022-10-16T05:52:41;4.6;;;4.4;;
15498;SDS011;7851;52.260;6.030;2022-10-16T05:53:41;5.5;;;4.9;;
15498;SDS011;7851;52.260;6.030;2022-10-16T05:54:41;5.3;;;4.9;;
15498;SDS011;7851;52.260;6.030;2022-10-16T05:55:41;5.4;;;5.1;;
15498;SDS011;7851;52.260;6.030;2022-10-16T05:56:41;5.7;;;5.4;;
15498;SDS011;7851;52.260;6.030;2022-10-16T05:57:41;5.3;;;4.9;;
15498;SDS011;7851;52.260;6.030;2022-10-16T05:58:41;5.6;;;5.2;;
15498;SDS011;7851;52.260;6.030;2022-10-16T05:59:41;4.9;;;4.7;;
15498;SDS011;7851;52.260;6.030;2022-10-16T06:00:41;7.8;;;4.5;;
15498;SDS011;7851;52.260;6.030;2022-10-16T06:01:41;5.1;;;4.7;;
15498;SDS011;7851;52.260;6.030;2022-10-16T06:02:41;4.9;;;4.6;;
15498;SDS011;7851;52.260;6.030;2022-10-16T06:03:41;4.2;;;4;;
15498;SDS011;7851;52.260;6.030;2022-10-16T06:04:41;5.1;;;4.3;;
15498;SDS011;7851;52.260;6.030;2022-10-16T06:05:41;5.5;;;5;;
15498;SDS011;7851;52.260;6.030;2022-10-16T06:06:41;5.6;;;5.1;;
15498;SDS011;7851;52.260;6.030;2022-10-16T06:07:41;6.1;;;5;;
15498;SDS011;7851;52.260;6.030;2022-10-16T06:08:42;5.3;;;4.9;;
15498;SDS011;7851;52.260;6.030;2022-10-16T06:09:41;7.3;;;4.5;;
15498;SDS011;7851;52.260;6.030;2022-10-16T06:10:41;5.8;;;4.5;;
15498;SDS011;7851;52.260;6.030;2022-10-16T06:11:41;5.2;;;4.9;;
15498;SDS011;7851;52.260;6.030;2022-10-16T06:12:41;6.1;;;5.6;;
15498;SDS011;7851;52.260;6.030;2022-10-16T06:13:41;6.3;;;5.8;;
15498;SDS011;7851;52.260;6.030;2022-10-16T06:14:41;6.2;;;5.6;;
15498;SDS011;7851;52.260;6.030;2022-10-16T06:15:42;5.4;;;5.1;;
15498;SDS011;7851;52.260;6.030;2022-10-16T06:16:42;5.6;;;5.1;;
15498;SDS011;7851;52.260;6.030;2022-10-16T06:17:41;5.7;;;5.3;;
15498;SDS011;7851;52.260;6.030;2022-10-16T06:18:41;4.5;;;3.9;;
15498;SDS011;7851;52.260;6.030;2022-10-16T06:19:41;5.7;;;5.2;;
15498;SDS011;7851;52.260;6.030;2022-10-16T06:20:41;5.7;;;5.4;;
15498;SDS011;7851;52.260;6.030;2022-10-16T06:21:41;6.4;;;6.1;;